sensor_id;sensor_type;location;lat;lon;timestamp;temperature;humidity
75509;DHT22;64214;47.250;11.332;2024-03-07T00:00:20;27.82;54.98
75509;DHT22;64214;47.250;11.332;2024-03-07T00:00:52;27.82;54.85
75509;DHT22;64214;47.250;11.332;2024-03-07T00:01:25;27.84;54.97
75509;DHT22;64214;47.250;11.332;2024-03-07T00:01:59;27.84;54.91
75509;DHT22;64214;47.250;11.332;2024-03-07T00:02:30;27.81;54.90
75509;DHT22;64214;47.250;11.332;2024-03-07T00:03:04;27.84;55.44
75509;DHT22;64214;47.250;11.332;2024-03-07T00:03:35;27.78;55.62
75509;DHT22;64214;47.250;11.332;2024-03-07T00:04:06;27.84;55.72
75509;DHT22;64214;47.250;11.332;2024-03-07T00:04:37;27.80;55.64
75509;DHT22;64214;47.250;11.332;2024-03-07T00:05:08;27.82;55.64
75509;DHT22;64214;47.250;11.332;2024-03-07T00:05:39;27.81;55.63
75509;DHT22;64214;47.250;11.332;2024-03-07T00:06:10;27.80;55.59
75509;DHT22;64214;47.250;11.332;2024-03-07T00:06:41;27.82;55.54
75509;DHT22;64214;47.250;11.332;2024-03-07T00:07:13;27.81;55.49
75509;DHT22;64214;47.250;11.332;2024-03-07T00:07:44;27.81;55.28
75509;DHT22;64214;47.250;11.332;2024-03-07T00:08:15;27.84;55.20
75509;DHT22;64214;47.250;11.332;2024-03-07T00:08:46;27.81;55.18
75509;DHT22;64214;47.250;11.332;2024-03-07T00:09:20;27.81;55.27
75509;DHT22;64214;47.250;11.332;2024-03-07T00:09:54;27.82;55.39
75509;DHT22;64214;47.250;11.332;2024-03-07T00:10:26;27.82;55.21
75509;DHT22;64214;47.250;11.332;2024-03-07T00:10:57;27.82;55.25
75509;DHT22;64214;47.250;11.332;2024-03-07T00:11:28;27.78;55.15
75509;DHT22;64214;47.250;11.332;2024-03-07T00:12:01;27.82;55.37
75509;DHT22;64214;47.250;11.332;2024-03-07T00:12:38;27.81;55.52
75509;DHT22;64214;47.250;11.332;2024-03-07T00:13:11;27.80;55.40
75509;DHT22;64214;47.250;11.332;2024-03-07T00:13:43;27.81;55.25
75509;DHT22;64214;47.250;11.332;2024-03-07T00:14:14;27.81;55.22
75509;DHT22;64214;47.250;11.332;2024-03-07T00:14:45;27.82;55.16
75509;DHT22;64214;47.250;11.332;2024-03-07T00:15:16;27.80;55.19
75509;DHT22;64214;47.250;11.332;2024-03-07T00:15:48;27.82;55.21
75509;DHT22;64214;47.250;11.332;2024-03-07T00:16:18;27.81;55.10
75509;DHT22;64214;47.250;11.332;2024-03-07T00:16:50;27.81;55.10
75509;DHT22;64214;47.250;11.332;2024-03-07T00:17:21;27.81;55.18
75509;DHT22;64214;47.250;11.332;2024-03-07T00:17:53;27.81;54.81
75509;DHT22;64214;47.250;11.332;2024-03-07T00:18:24;27.82;54.67
75509;DHT22;64214;47.250;11.332;2024-03-07T00:18:55;27.81;54.52
75509;DHT22;64214;47.250;11.332;2024-03-07T00:19:26;27.80;54.25
75509;DHT22;64214;47.250;11.332;2024-03-07T00:20:00;27.81;54.19
75509;DHT22;64214;47.250;11.332;2024-03-07T00:20:31;27.80;54.52
75509;DHT22;64214;47.250;11.332;2024-03-07T00:21:02;27.80;54.65
75509;DHT22;64214;47.250;11.332;2024-03-07T00:21:33;27.80;54.75
75509;DHT22;64214;47.250;11.332;2024-03-07T00:22:04;27.81;54.99
75509;DHT22;64214;47.250;11.332;2024-03-07T00:22:35;27.80;55.11
75509;DHT22;64214;47.250;11.332;2024-03-07T00:23:06;27.81;55.00
75509;DHT22;64214;47.250;11.332;2024-03-07T00:23:37;27.84;54.88
75509;DHT22;64214;47.250;11.332;2024-03-07T00:24:07;27.82;54.97
75509;DHT22;64214;47.250;11.332;2024-03-07T00:24:38;27.85;55.04
75509;DHT22;64214;47.250;11.332;2024-03-07T00:25:09;27.80;55.34
75509;DHT22;64214;47.250;11.332;2024-03-07T00:25:42;27.81;55.58
75509;DHT22;64214;47.250;11.332;2024-03-07T00:26:12;27.80;55.45
75509;DHT22;64214;47.250;11.332;2024-03-07T00:26:43;27.82;55.60
75509;DHT22;64214;47.250;11.332;2024-03-07T00:27:14;27.81;55.65
75509;DHT22;64214;47.250;11.332;2024-03-07T00:27:45;27.81;55.33
75509;DHT22;64214;47.250;11.332;2024-03-07T00:28:15;27.80;55.37
75509;DHT22;64214;47.250;11.332;2024-03-07T00:28:47;27.81;55.35
75509;DHT22;64214;47.250;11.332;2024-03-07T00:29:18;27.81;55.13
75509;DHT22;64214;47.250;11.332;2024-03-07T00:29:49;27.80;55.00
75509;DHT22;64214;47.250;11.332;2024-03-07T00:30:23;27.80;55.04
75509;DHT22;64214;47.250;11.332;2024-03-07T00:30:54;27.80;55.39
75509;DHT22;64214;47.250;11.332;2024-03-07T00:31:25;27.81;55.42
75509;DHT22;64214;47.250;11.332;2024-03-07T00:31:57;27.84;55.27
75509;DHT22;64214;47.250;11.332;2024-03-07T00:32:29;27.81;55.03
75509;DHT22;64214;47.250;11.332;2024-03-07T00:33:03;27.81;55.12
75509;DHT22;64214;47.250;11.332;2024-03-07T00:33:35;27.82;55.08
75509;DHT22;64214;47.250;11.332;2024-03-07T00:34:05;27.80;55.11
75509;DHT22;64214;47.250;11.332;2024-03-07T00:34:36;27.81;55.21
75509;DHT22;64214;47.250;11.332;2024-03-07T00:35:10;27.82;55.34
75509;DHT22;64214;47.250;11.332;2024-03-07T00:35:40;27.80;55.23
75509;DHT22;64214;47.250;11.332;2024-03-07T00:36:11;27.81;55.14
75509;DHT22;64214;47.250;11.332;2024-03-07T00:36:42;27.80;55.06
75509;DHT22;64214;47.250;11.332;2024-03-07T00:37:14;27.82;55.13
75509;DHT22;64214;47.250;11.332;2024-03-07T00:37:44;27.81;55.07
75509;DHT22;64214;47.250;11.332;2024-03-07T00:38:15;27.80;55.11
75509;DHT22;64214;47.250;11.332;2024-03-07T00:38:46;27.81;55.13
75509;DHT22;64214;47.250;11.332;2024-03-07T00:39:17;27.81;55.18
75509;DHT22;64214;47.250;11.332;2024-03-07T00:39:48;27.82;55.10
75509;DHT22;64214;47.250;11.332;2024-03-07T00:40:19;27.81;54.67
75509;DHT22;64214;47.250;11.332;2024-03-07T00:40:50;27.80;54.62
75509;DHT22;64214;47.250;11.332;2024-03-07T00:41:21;27.80;54.53
75509;DHT22;64214;47.250;11.332;2024-03-07T00:41:51;27.78;54.24
75509;DHT22;64214;47.250;11.332;2024-03-07T00:42:23;27.80;54.41
75509;DHT22;64214;47.250;11.332;2024-03-07T00:42:54;27.78;54.60
75509;DHT22;64214;47.250;11.332;2024-03-07T00:43:25;27.78;54.68
75509;DHT22;64214;47.250;11.332;2024-03-07T00:43:56;27.80;54.91
75509;DHT22;64214;47.250;11.332;2024-03-07T00:44:27;27.81;55.07
75509;DHT22;64214;47.250;11.332;2024-03-07T00:44:57;27.80;54.93
75509;DHT22;64214;47.250;11.332;2024-03-07T00:45:28;27.80;54.94
75509;DHT22;64214;47.250;11.332;2024-03-07T00:45:59;27.78;54.88
75509;DHT22;64214;47.250;11.332;2024-03-07T00:46:30;27.82;55.04
75509;DHT22;64214;47.250;11.332;2024-03-07T00:47:01;27.81;55.19
75509;DHT22;64214;47.250;11.332;2024-03-07T00:47:35;27.81;55.25
75509;DHT22;64214;47.250;11.332;2024-03-07T00:48:06;27.80;55.39
75509;DHT22;64214;47.250;11.332;2024-03-07T00:48:37;27.81;55.61
75509;DHT22;64214;47.250;11.332;2024-03-07T00:49:12;27.80;55.53
75509;DHT22;64214;47.250;11.332;2024-03-07T00:49:43;27.81;55.20
75509;DHT22;64214;47.250;11.332;2024-03-07T00:50:14;27.80;55.32
75509;DHT22;64214;47.250;11.332;2024-03-07T00:50:45;27.80;55.38
75509;DHT22;64214;47.250;11.332;2024-03-07T00:51:16;27.81;55.28
75509;DHT22;64214;47.250;11.332;2024-03-07T00:51:50;27.80;55.27
75509;DHT22;64214;47.250;11.332;2024-03-07T00:52:20;27.81;55.19
75509;DHT22;64214;47.250;11.332;2024-03-07T00:52:54;27.82;55.36
75509;DHT22;64214;47.250;11.332;2024-03-07T00:53:25;27.81;55.24
75509;DHT22;64214;47.250;11.332;2024-03-07T00:53:56;27.81;55.23
75509;DHT22;64214;47.250;11.332;2024-03-07T00:54:28;27.78;55.24
75509;DHT22;64214;47.250;11.332;2024-03-07T00:54:59;27.81;55.06
75509;DHT22;64214;47.250;11.332;2024-03-07T00:55:30;27.80;55.21
75509;DHT22;64214;47.250;11.332;2024-03-07T00:56:00;27.82;55.25
75509;DHT22;64214;47.250;11.332;2024-03-07T00:56:33;27.81;55.34
75509;DHT22;64214;47.250;11.332;2024-03-07T00:57:04;27.81;55.29
75509;DHT22;64214;47.250;11.332;2024-03-07T00:57:35;27.81;54.99
75509;DHT22;64214;47.250;11.332;2024-03-07T00:58:06;27.80;55.08
75509;DHT22;64214;47.250;11.332;2024-03-07T00:58:37;27.80;55.23
75509;DHT22;64214;47.250;11.332;2024-03-07T00:59:08;27.82;55.20
75509;DHT22;64214;47.250;11.332;2024-03-07T00:59:38;27.81;55.16
75509;DHT22;64214;47.250;11.332;2024-03-07T01:00:09;27.81;55.10
75509;DHT22;64214;47.250;11.332;2024-03-07T01:00:44;27.80;54.95
75509;DHT22;64214;47.250;11.332;2024-03-07T01:01:15;27.80;55.01
75509;DHT22;64214;47.250;11.332;2024-03-07T01:01:46;27.80;55.08
75509;DHT22;64214;47.250;11.332;2024-03-07T01:02:17;27.84;54.92
75509;DHT22;64214;47.250;11.332;2024-03-07T01:02:48;27.80;54.58
75509;DHT22;64214;47.250;11.332;2024-03-07T01:03:19;27.80;54.55
75509;DHT22;64214;47.250;11.332;2024-03-07T01:03:50;27.80;54.47
75509;DHT22;64214;47.250;11.332;2024-03-07T01:04:21;27.81;54.32
75509;DHT22;64214;47.250;11.332;2024-03-07T01:04:53;27.81;54.21
75509;DHT22;64214;47.250;11.332;2024-03-07T01:05:25;27.80;54.48
75509;DHT22;64214;47.250;11.332;2024-03-07T01:05:55;27.80;54.65
75509;DHT22;64214;47.250;11.332;2024-03-07T01:06:26;27.80;54.69
75509;DHT22;64214;47.250;11.332;2024-03-07T01:06:57;27.78;54.66
75509;DHT22;64214;47.250;11.332;2024-03-07T01:07:28;27.80;54.81
75509;DHT22;64214;47.250;11.332;2024-03-07T01:08:00;27.84;54.85
75509;DHT22;64214;47.250;11.332;2024-03-07T01:08:31;27.81;54.77
75509;DHT22;64214;47.250;11.332;2024-03-07T01:09:03;27.78;54.73
75509;DHT22;64214;47.250;11.332;2024-03-07T01:09:34;27.80;54.87
75509;DHT22;64214;47.250;11.332;2024-03-07T01:10:06;27.81;55.38
75509;DHT22;64214;47.250;11.332;2024-03-07T01:10:37;27.85;55.46
75509;DHT22;64214;47.250;11.332;2024-03-07T01:11:11;27.81;55.21
75509;DHT22;64214;47.250;11.332;2024-03-07T01:11:43;27.80;55.23
75509;DHT22;64214;47.250;11.332;2024-03-07T01:12:15;27.80;55.38
75509;DHT22;64214;47.250;11.332;2024-03-07T01:12:47;27.80;55.42
75509;DHT22;64214;47.250;11.332;2024-03-07T01:13:20;27.81;55.34
75509;DHT22;64214;47.250;11.332;2024-03-07T01:13:52;27.80;55.32
75509;DHT22;64214;47.250;11.332;2024-03-07T01:14:29;27.80;55.09
75509;DHT22;64214;47.250;11.332;2024-03-07T01:15:01;27.80;54.98
75509;DHT22;64214;47.250;11.332;2024-03-07T01:15:34;27.82;55.08
75509;DHT22;64214;47.250;11.332;2024-03-07T01:16:05;27.81;55.12
75509;DHT22;64214;47.250;11.332;2024-03-07T01:16:36;27.78;55.30
75509;DHT22;64214;47.250;11.332;2024-03-07T01:17:07;27.82;55.02
75509;DHT22;64214;47.250;11.332;2024-03-07T01:17:39;27.80;55.03
75509;DHT22;64214;47.250;11.332;2024-03-07T01:18:10;27.80;55.02
75509;DHT22;64214;47.250;11.332;2024-03-07T01:18:41;27.81;55.01
75509;DHT22;64214;47.250;11.332;2024-03-07T01:19:12;27.80;54.95
75509;DHT22;64214;47.250;11.332;2024-03-07T01:19:46;27.81;55.04
75509;DHT22;64214;47.250;11.332;2024-03-07T01:20:20;27.81;55.14
75509;DHT22;64214;47.250;11.332;2024-03-07T01:20:54;27.81;55.14
75509;DHT22;64214;47.250;11.332;2024-03-07T01:21:25;27.80;55.21
75509;DHT22;64214;47.250;11.332;2024-03-07T01:21:56;27.80;55.05
75509;DHT22;64214;47.250;11.332;2024-03-07T01:22:27;27.78;55.04
75509;DHT22;64214;47.250;11.332;2024-03-07T01:22:58;27.81;55.13
75509;DHT22;64214;47.250;11.332;2024-03-07T01:23:28;27.81;55.02
75509;DHT22;64214;47.250;11.332;2024-03-07T01:23:59;27.80;54.97
75509;DHT22;64214;47.250;11.332;2024-03-07T01:24:34;27.78;54.74
75509;DHT22;64214;47.250;11.332;2024-03-07T01:25:06;27.81;54.27
75509;DHT22;64214;47.250;11.332;2024-03-07T01:25:38;27.80;54.51
75509;DHT22;64214;47.250;11.332;2024-03-07T01:26:11;27.78;54.47
75509;DHT22;64214;47.250;11.332;2024-03-07T01:26:43;27.78;54.41
75509;DHT22;64214;47.250;11.332;2024-03-07T01:27:13;27.80;54.17
75509;DHT22;64214;47.250;11.332;2024-03-07T01:27:44;27.77;54.27
75509;DHT22;64214;47.250;11.332;2024-03-07T01:28:15;27.78;54.60
75509;DHT22;64214;47.250;11.332;2024-03-07T01:28:47;27.78;54.79
75509;DHT22;64214;47.250;11.332;2024-03-07T01:29:18;27.80;54.75
75509;DHT22;64214;47.250;11.332;2024-03-07T01:29:49;27.80;54.92
75509;DHT22;64214;47.250;11.332;2024-03-07T01:30:20;27.80;54.74
75509;DHT22;64214;47.250;11.332;2024-03-07T01:30:53;27.81;54.70
75509;DHT22;64214;47.250;11.332;2024-03-07T01:31:25;27.78;54.73
75509;DHT22;64214;47.250;11.332;2024-03-07T01:31:56;27.78;54.80
75509;DHT22;64214;47.250;11.332;2024-03-07T01:32:28;27.80;55.15
75509;DHT22;64214;47.250;11.332;2024-03-07T01:32:59;27.78;55.22
75509;DHT22;64214;47.250;11.332;2024-03-07T01:33:29;27.81;55.06
75509;DHT22;64214;47.250;11.332;2024-03-07T01:34:00;27.80;55.13
75509;DHT22;64214;47.250;11.332;2024-03-07T01:34:31;27.78;55.20
75509;DHT22;64214;47.250;11.332;2024-03-07T01:35:05;27.81;55.34
75509;DHT22;64214;47.250;11.332;2024-03-07T01:35:38;27.80;55.22
75509;DHT22;64214;47.250;11.332;2024-03-07T01:36:08;27.80;55.16
75509;DHT22;64214;47.250;11.332;2024-03-07T01:36:39;27.80;55.13
75509;DHT22;64214;47.250;11.332;2024-03-07T01:37:10;27.78;55.13
75509;DHT22;64214;47.250;11.332;2024-03-07T01:37:42;27.78;55.07
75509;DHT22;64214;47.250;11.332;2024-03-07T01:38:13;27.80;54.92
75509;DHT22;64214;47.250;11.332;2024-03-07T01:38:44;27.78;54.90
75509;DHT22;64214;47.250;11.332;2024-03-07T01:39:15;27.81;55.15
75509;DHT22;64214;47.250;11.332;2024-03-07T01:39:46;27.80;55.10
75509;DHT22;64214;47.250;11.332;2024-03-07T01:40:17;27.78;55.15
75509;DHT22;64214;47.250;11.332;2024-03-07T01:40:49;27.77;55.18
75509;DHT22;64214;47.250;11.332;2024-03-07T01:41:20;27.77;55.04
75509;DHT22;64214;47.250;11.332;2024-03-07T01:41:51;27.80;54.93
75509;DHT22;64214;47.250;11.332;2024-03-07T01:42:24;27.78;54.86
75509;DHT22;64214;47.250;11.332;2024-03-07T01:42:55;27.78;55.12
75509;DHT22;64214;47.250;11.332;2024-03-07T01:43:26;27.77;55.22
75509;DHT22;64214;47.250;11.332;2024-03-07T01:43:57;27.80;55.06
75509;DHT22;64214;47.250;11.332;2024-03-07T01:44:29;27.78;54.93
75509;DHT22;64214;47.250;11.332;2024-03-07T01:45:02;27.80;55.00
75509;DHT22;64214;47.250;11.332;2024-03-07T01:45:32;27.80;54.93
75509;DHT22;64214;47.250;11.332;2024-03-07T01:46:03;27.78;54.84
75509;DHT22;64214;47.250;11.332;2024-03-07T01:46:35;27.81;55.00
75509;DHT22;64214;47.250;11.332;2024-03-07T01:47:06;27.78;54.69
75509;DHT22;64214;47.250;11.332;2024-03-07T01:47:37;27.80;54.47
75509;DHT22;64214;47.250;11.332;2024-03-07T01:48:11;27.78;54.37
75509;DHT22;64214;47.250;11.332;2024-03-07T01:48:43;27.78;54.38
75509;DHT22;64214;47.250;11.332;2024-03-07T01:49:14;27.78;54.23
75509;DHT22;64214;47.250;11.332;2024-03-07T01:49:45;27.77;54.22
75509;DHT22;64214;47.250;11.332;2024-03-07T01:50:15;27.77;54.38
75509;DHT22;64214;47.250;11.332;2024-03-07T01:50:48;27.80;54.55
75509;DHT22;64214;47.250;11.332;2024-03-07T01:51:19;27.78;54.69
75509;DHT22;64214;47.250;11.332;2024-03-07T01:51:53;27.77;54.82
75509;DHT22;64214;47.250;11.332;2024-03-07T01:52:25;27.77;54.77
75509;DHT22;64214;47.250;11.332;2024-03-07T01:52:55;27.80;54.62
75509;DHT22;64214;47.250;11.332;2024-03-07T01:53:27;27.78;54.65
75509;DHT22;64214;47.250;11.332;2024-03-07T01:53:58;27.78;54.81
75509;DHT22;64214;47.250;11.332;2024-03-07T01:54:29;27.77;54.89
75509;DHT22;64214;47.250;11.332;2024-03-07T01:55:01;27.80;55.36
75509;DHT22;64214;47.250;11.332;2024-03-07T01:55:33;27.78;55.45
75509;DHT22;64214;47.250;11.332;2024-03-07T01:56:04;27.78;55.18
75509;DHT22;64214;47.250;11.332;2024-03-07T01:56:36;27.80;54.98
75509;DHT22;64214;47.250;11.332;2024-03-07T01:57:07;27.78;54.96
75509;DHT22;64214;47.250;11.332;2024-03-07T01:57:38;27.80;55.03
75509;DHT22;64214;47.250;11.332;2024-03-07T01:58:09;27.78;55.09
75509;DHT22;64214;47.250;11.332;2024-03-07T01:58:45;27.77;55.28
75509;DHT22;64214;47.250;11.332;2024-03-07T01:59:18;27.80;55.24
75509;DHT22;64214;47.250;11.332;2024-03-07T01:59:52;27.80;55.03
75509;DHT22;64214;47.250;11.332;2024-03-07T02:00:23;27.80;54.88
75509;DHT22;64214;47.250;11.332;2024-03-07T02:00:54;27.78;54.93
75509;DHT22;64214;47.250;11.332;2024-03-07T02:01:25;27.78;54.80
75509;DHT22;64214;47.250;11.332;2024-03-07T02:01:56;27.80;54.91
75509;DHT22;64214;47.250;11.332;2024-03-07T02:02:27;27.78;54.91
75509;DHT22;64214;47.250;11.332;2024-03-07T02:02:58;27.80;55.09
75509;DHT22;64214;47.250;11.332;2024-03-07T02:03:32;27.78;55.02
75509;DHT22;64214;47.250;11.332;2024-03-07T02:04:03;27.78;54.98
75509;DHT22;64214;47.250;11.332;2024-03-07T02:04:33;27.80;55.04
75509;DHT22;64214;47.250;11.332;2024-03-07T02:05:05;27.78;54.89
75509;DHT22;64214;47.250;11.332;2024-03-07T02:05:36;27.78;54.98
75509;DHT22;64214;47.250;11.332;2024-03-07T02:06:07;27.82;54.94
75509;DHT22;64214;47.250;11.332;2024-03-07T02:06:38;27.81;54.84
75509;DHT22;64214;47.250;11.332;2024-03-07T02:07:09;27.80;54.73
75509;DHT22;64214;47.250;11.332;2024-03-07T02:07:44;27.78;55.00
75509;DHT22;64214;47.250;11.332;2024-03-07T02:08:15;27.80;55.13
75509;DHT22;64214;47.250;11.332;2024-03-07T02:08:46;27.80;55.14
75509;DHT22;64214;47.250;11.332;2024-03-07T02:09:18;27.78;54.75
75509;DHT22;64214;47.250;11.332;2024-03-07T02:09:50;27.80;54.35
75509;DHT22;64214;47.250;11.332;2024-03-07T02:10:21;27.78;54.29
75509;DHT22;64214;47.250;11.332;2024-03-07T02:10:52;27.80;54.30
75509;DHT22;64214;47.250;11.332;2024-03-07T02:11:23;27.77;54.14
75509;DHT22;64214;47.250;11.332;2024-03-07T02:11:54;27.80;53.99
75509;DHT22;64214;47.250;11.332;2024-03-07T02:12:26;27.81;54.20
75509;DHT22;64214;47.250;11.332;2024-03-07T02:13:00;27.78;54.44
75509;DHT22;64214;47.250;11.332;2024-03-07T02:13:35;27.77;54.53
75509;DHT22;64214;47.250;11.332;2024-03-07T02:14:08;27.77;54.73
75509;DHT22;64214;47.250;11.332;2024-03-07T02:14:39;27.78;54.84
75509;DHT22;64214;47.250;11.332;2024-03-07T02:15:10;27.78;54.53
75509;DHT22;64214;47.250;11.332;2024-03-07T02:15:41;27.80;54.48
75509;DHT22;64214;47.250;11.332;2024-03-07T02:16:13;27.77;54.66
75509;DHT22;64214;47.250;11.332;2024-03-07T02:16:44;27.78;54.82
75509;DHT22;64214;47.250;11.332;2024-03-07T02:17:15;27.78;55.18
75509;DHT22;64214;47.250;11.332;2024-03-07T02:17:46;27.78;55.20
75509;DHT22;64214;47.250;11.332;2024-03-07T02:18:17;27.80;55.15
75509;DHT22;64214;47.250;11.332;2024-03-07T02:18:48;27.77;54.95
75509;DHT22;64214;47.250;11.332;2024-03-07T02:19:19;27.78;55.10
75509;DHT22;64214;47.250;11.332;2024-03-07T02:19:51;27.80;55.12
75509;DHT22;64214;47.250;11.332;2024-03-07T02:20:22;27.80;54.85
75509;DHT22;64214;47.250;11.332;2024-03-07T02:20:54;27.77;54.82
75509;DHT22;64214;47.250;11.332;2024-03-07T02:21:25;27.77;55.09
75509;DHT22;64214;47.250;11.332;2024-03-07T02:21:59;27.80;55.04
75509;DHT22;64214;47.250;11.332;2024-03-07T02:22:30;27.78;54.94
75509;DHT22;64214;47.250;11.332;2024-03-07T02:23:04;27.80;54.83
75509;DHT22;64214;47.250;11.332;2024-03-07T02:23:35;27.81;54.90
75509;DHT22;64214;47.250;11.332;2024-03-07T02:24:06;27.80;54.75
75509;DHT22;64214;47.250;11.332;2024-03-07T02:24:37;27.80;54.87
75509;DHT22;64214;47.250;11.332;2024-03-07T02:25:08;27.80;54.95
75509;DHT22;64214;47.250;11.332;2024-03-07T02:25:42;27.78;55.09
75509;DHT22;64214;47.250;11.332;2024-03-07T02:26:13;27.78;54.94
75509;DHT22;64214;47.250;11.332;2024-03-07T02:26:44;27.78;54.83
75509;DHT22;64214;47.250;11.332;2024-03-07T02:27:14;27.80;54.84
75509;DHT22;64214;47.250;11.332;2024-03-07T02:27:47;27.78;54.76
75509;DHT22;64214;47.250;11.332;2024-03-07T02:28:17;27.80;55.03
75509;DHT22;64214;47.250;11.332;2024-03-07T02:28:48;27.78;55.08
75509;DHT22;64214;47.250;11.332;2024-03-07T02:29:19;27.80;54.84
75509;DHT22;64214;47.250;11.332;2024-03-07T02:29:50;27.81;54.88
75509;DHT22;64214;47.250;11.332;2024-03-07T02:30:22;27.78;54.92
75509;DHT22;64214;47.250;11.332;2024-03-07T02:30:53;27.78;54.61
75509;DHT22;64214;47.250;11.332;2024-03-07T02:31:23;27.78;54.57
75509;DHT22;64214;47.250;11.332;2024-03-07T02:32:05;27.77;54.54
75509;DHT22;64214;47.250;11.332;2024-03-07T02:32:37;27.77;54.49
75509;DHT22;64214;47.250;11.332;2024-03-07T02:33:07;27.78;54.40
75509;DHT22;64214;47.250;11.332;2024-03-07T02:33:40;27.77;54.15
75509;DHT22;64214;47.250;11.332;2024-03-07T02:34:12;27.78;54.09
75509;DHT22;64214;47.250;11.332;2024-03-07T02:34:43;27.80;54.07
75509;DHT22;64214;47.250;11.332;2024-03-07T02:35:17;27.78;54.32
75509;DHT22;64214;47.250;11.332;2024-03-07T02:35:48;27.80;54.63
75509;DHT22;64214;47.250;11.332;2024-03-07T02:36:19;27.81;54.76
75509;DHT22;64214;47.250;11.332;2024-03-07T02:36:50;27.80;54.78
75509;DHT22;64214;47.250;11.332;2024-03-07T02:37:22;27.78;54.81
75509;DHT22;64214;47.250;11.332;2024-03-07T02:37:53;27.77;54.70
75509;DHT22;64214;47.250;11.332;2024-03-07T02:38:24;27.77;54.80
75509;DHT22;64214;47.250;11.332;2024-03-07T02:38:54;27.77;54.94
75509;DHT22;64214;47.250;11.332;2024-03-07T02:39:25;27.78;55.07
75509;DHT22;64214;47.250;11.332;2024-03-07T02:39:56;27.78;55.25
75509;DHT22;64214;47.250;11.332;2024-03-07T02:40:27;27.77;55.05
75509;DHT22;64214;47.250;11.332;2024-03-07T02:40:58;27.78;54.87
75509;DHT22;64214;47.250;11.332;2024-03-07T02:41:29;27.78;54.88
75509;DHT22;64214;47.250;11.332;2024-03-07T02:42:01;27.80;54.81
75509;DHT22;64214;47.250;11.332;2024-03-07T02:42:31;27.78;54.93
75509;DHT22;64214;47.250;11.332;2024-03-07T02:43:02;27.80;55.04
75509;DHT22;64214;47.250;11.332;2024-03-07T02:43:37;27.80;54.96
75509;DHT22;64214;47.250;11.332;2024-03-07T02:44:08;27.81;54.94
75509;DHT22;64214;47.250;11.332;2024-03-07T02:44:42;27.80;54.91
75509;DHT22;64214;47.250;11.332;2024-03-07T02:45:13;27.78;54.78
75509;DHT22;64214;47.250;11.332;2024-03-07T02:45:45;27.80;54.70
75509;DHT22;64214;47.250;11.332;2024-03-07T02:46:15;27.80;54.75
75509;DHT22;64214;47.250;11.332;2024-03-07T02:46:47;27.78;54.92
75509;DHT22;64214;47.250;11.332;2024-03-07T02:47:17;27.78;55.06
75509;DHT22;64214;47.250;11.332;2024-03-07T02:47:48;27.78;55.03
75509;DHT22;64214;47.250;11.332;2024-03-07T02:48:19;27.78;54.81
75509;DHT22;64214;47.250;11.332;2024-03-07T02:48:51;27.80;54.82
75509;DHT22;64214;47.250;11.332;2024-03-07T02:49:22;27.81;54.95
75509;DHT22;64214;47.250;11.332;2024-03-07T02:49:55;27.80;54.90
75509;DHT22;64214;47.250;11.332;2024-03-07T02:50:26;27.78;54.74
75509;DHT22;64214;47.250;11.332;2024-03-07T02:50:57;27.81;54.98
75509;DHT22;64214;47.250;11.332;2024-03-07T02:51:27;27.78;54.90
75509;DHT22;64214;47.250;11.332;2024-03-07T02:51:58;27.80;54.69
75509;DHT22;64214;47.250;11.332;2024-03-07T02:52:29;27.80;54.69
75509;DHT22;64214;47.250;11.332;2024-03-07T02:53:03;27.80;54.76
75509;DHT22;64214;47.250;11.332;2024-03-07T02:53:34;27.77;54.79
75509;DHT22;64214;47.250;11.332;2024-03-07T02:54:05;27.80;54.70
75509;DHT22;64214;47.250;11.332;2024-03-07T02:54:36;27.80;54.41
75509;DHT22;64214;47.250;11.332;2024-03-07T02:55:07;27.78;54.24
75509;DHT22;64214;47.250;11.332;2024-03-07T02:55:40;27.78;54.23
75509;DHT22;64214;47.250;11.332;2024-03-07T02:56:12;27.78;54.11
75509;DHT22;64214;47.250;11.332;2024-03-07T02:56:42;27.80;53.95
75509;DHT22;64214;47.250;11.332;2024-03-07T02:57:14;27.77;53.98
75509;DHT22;64214;47.250;11.332;2024-03-07T02:57:46;27.77;54.30
75509;DHT22;64214;47.250;11.332;2024-03-07T02:58:17;27.78;54.53
75509;DHT22;64214;47.250;11.332;2024-03-07T02:58:51;27.78;54.57
75509;DHT22;64214;47.250;11.332;2024-03-07T02:59:22;27.77;54.61
75509;DHT22;64214;47.250;11.332;2024-03-07T02:59:53;27.77;54.85
75509;DHT22;64214;47.250;11.332;2024-03-07T03:00:24;27.80;54.76
75509;DHT22;64214;47.250;11.332;2024-03-07T03:01:00;27.78;54.68
75509;DHT22;64214;47.250;11.332;2024-03-07T03:01:32;27.78;54.72
75509;DHT22;64214;47.250;11.332;2024-03-07T03:02:06;27.77;54.86
75509;DHT22;64214;47.250;11.332;2024-03-07T03:02:37;27.80;55.04
75509;DHT22;64214;47.250;11.332;2024-03-07T03:03:08;27.78;55.20
75509;DHT22;64214;47.250;11.332;2024-03-07T03:03:39;27.80;55.16
75509;DHT22;64214;47.250;11.332;2024-03-07T03:04:12;27.78;55.18
75509;DHT22;64214;47.250;11.332;2024-03-07T03:04:43;27.80;55.03
75509;DHT22;64214;47.250;11.332;2024-03-07T03:05:15;27.78;55.02
75509;DHT22;64214;47.250;11.332;2024-03-07T03:05:46;27.80;55.02
75509;DHT22;64214;47.250;11.332;2024-03-07T03:06:16;27.80;54.85
75509;DHT22;64214;47.250;11.332;2024-03-07T03:06:49;27.78;54.90
75509;DHT22;64214;47.250;11.332;2024-03-07T03:07:20;27.75;55.12
75509;DHT22;64214;47.250;11.332;2024-03-07T03:07:51;27.80;55.13
75509;DHT22;64214;47.250;11.332;2024-03-07T03:08:23;27.80;54.81
75509;DHT22;64214;47.250;11.332;2024-03-07T03:08:54;27.80;54.70
75509;DHT22;64214;47.250;11.332;2024-03-07T03:09:25;27.78;54.64
75509;DHT22;64214;47.250;11.332;2024-03-07T03:09:58;27.78;54.67
75509;DHT22;64214;47.250;11.332;2024-03-07T03:10:29;27.78;54.78
75509;DHT22;64214;47.250;11.332;2024-03-07T03:11:00;27.77;54.98
75509;DHT22;64214;47.250;11.332;2024-03-07T03:11:30;27.78;55.08
75509;DHT22;64214;47.250;11.332;2024-03-07T03:12:04;27.78;55.05
75509;DHT22;64214;47.250;11.332;2024-03-07T03:12:38;27.77;54.87
75509;DHT22;64214;47.250;11.332;2024-03-07T03:13:09;27.77;54.84
75509;DHT22;64214;47.250;11.332;2024-03-07T03:13:40;27.78;54.84
75509;DHT22;64214;47.250;11.332;2024-03-07T03:14:11;27.80;54.84
75509;DHT22;64214;47.250;11.332;2024-03-07T03:14:45;27.78;54.95
75509;DHT22;64214;47.250;11.332;2024-03-07T03:15:16;27.78;54.79
75509;DHT22;64214;47.250;11.332;2024-03-07T03:15:53;27.78;54.78
75509;DHT22;64214;47.250;11.332;2024-03-07T03:16:25;27.81;54.71